createdAt,value
2022-09-14T00:01:27.721Z,23.88
2022-09-14T00:03:57.053Z,23.88
2022-09-14T00:06:24.659Z,23.93
2022-09-14T00:08:53.100Z,23.86
2022-09-14T00:11:22.664Z,23.68
2022-09-14T00:13:50.546Z,23.69
2022-09-14T00:16:21.107Z,23.75
2022-09-14T00:18:59.175Z,23.74
2022-09-14T00:21:27.409Z,23.76
2022-09-14T00:23:54.570Z,23.74
2022-09-14T00:26:22.790Z,23.71
2022-09-14T00:28:55.350Z,23.69
2022-09-14T00:31:23.940Z,23.69
2022-09-14T00:33:52.004Z,23.64
2022-09-14T00:36:27.622Z,23.65
2022-09-14T00:38:56.778Z,23.54
2022-09-14T00:41:27.223Z,23.50
2022-09-14T00:44:06.162Z,23.36
2022-09-14T00:46:46.352Z,23.47
2022-09-14T00:49:34.571Z,23.45
2022-09-14T00:52:23.074Z,23.46
2022-09-14T00:54:58.540Z,23.40
2022-09-14T00:57:27.963Z,23.41
2022-09-14T00:59:55.731Z,23.48
2022-09-14T01:02:24.315Z,23.33
2022-09-14T01:04:51.996Z,23.30
2022-09-14T01:07:22.280Z,23.32
2022-09-14T01:09:55.588Z,23.33
2022-09-14T01:12:46.623Z,23.42
2022-09-14T01:15:32.388Z,23.22
2022-09-14T01:18:15.528Z,23.25
2022-09-14T01:20:54.602Z,23.35
2022-09-14T01:23:43.570Z,23.32
2022-09-14T01:26:32.433Z,23.29
2022-09-14T01:29:42.024Z,23.25
2022-09-14T01:32:20.383Z,23.27
2022-09-14T01:35:15.771Z,23.23
2022-09-14T01:37:50.916Z,23.19
2022-09-14T01:40:37.511Z,23.16
2022-09-14T01:43:10.859Z,23.13
2022-09-14T01:45:50.425Z,23.17
2022-09-14T01:48:22.745Z,23.25
2022-09-14T01:50:56.974Z,23.37
2022-09-14T01:53:37.670Z,23.31
2022-09-14T01:56:15.823Z,23.18
2022-09-14T01:58:57.218Z,23.16
2022-09-14T02:01:37.856Z,23.24
2022-09-14T02:04:08.658Z,23.12
2022-09-14T02:06:39.890Z,23.18
2022-09-14T02:09:10.237Z,23.14
2022-09-14T02:11:38.543Z,23.12
2022-09-14T02:14:06.154Z,22.97
2022-09-14T02:16:34.831Z,23.03
2022-09-14T02:19:02.483Z,23.07
2022-09-14T02:21:31.861Z,22.94
2022-09-14T02:24:00.165Z,23.12
2022-09-14T02:26:28.275Z,23.09
2022-09-14T02:28:56.254Z,23.07
2022-09-14T02:31:48.591Z,23.10
2022-09-14T02:34:48.313Z,23.22
2022-09-14T02:37:21.938Z,23.12
2022-09-14T02:40:07.965Z,23.15
2022-09-14T02:42:53.731Z,23.14
2022-09-14T02:45:33.197Z,23.13
2022-09-14T02:48:06.425Z,23.19
2022-09-14T02:50:33.560Z,23.18
2022-09-14T02:53:12.928Z,23.17
2022-09-14T02:55:46.989Z,23.14
2022-09-14T02:58:15.122Z,23.15
2022-09-14T03:00:45.687Z,23.23
2022-09-14T03:03:15.629Z,23.12
2022-09-14T03:05:42.976Z,23.20
2022-09-14T03:08:10.962Z,23.13
2022-09-14T03:10:38.720Z,23.14
2022-09-14T03:13:05.943Z,23.16
2022-09-14T03:15:33.181Z,23.07
2022-09-14T03:18:00.539Z,23.03
2022-09-14T03:20:29.395Z,23.04
2022-09-14T03:22:58.524Z,22.92
2022-09-14T03:25:26.040Z,22.94
2022-09-14T03:27:58.808Z,22.89
2022-09-14T03:30:26.485Z,22.92
2022-09-14T03:32:53.722Z,22.95
2022-09-14T03:35:20.997Z,23.01
2022-09-14T03:37:48.375Z,23.05
2022-09-14T03:40:21.423Z,23.02
2022-09-14T03:42:50.712Z,22.94
2022-09-14T03:45:19.030Z,22.96
2022-09-14T03:47:49.153Z,23.02
2022-09-14T03:50:17.780Z,22.77
2022-09-14T03:52:45.130Z,22.90
2022-09-14T03:55:12.421Z,22.91
2022-09-14T03:57:41.737Z,22.97
2022-09-14T04:00:10.293Z,22.90
2022-09-14T04:02:41.218Z,22.77
2022-09-14T04:05:08.622Z,22.76
2022-09-14T04:07:36.361Z,22.75
2022-09-14T04:10:05.564Z,22.72
2022-09-14T04:12:36.956Z,22.78
2022-09-14T04:15:06.018Z,22.67
2022-09-14T04:17:33.506Z,22.94
2022-09-14T04:20:00.766Z,22.66
2022-09-14T04:22:28.046Z,22.77
2022-09-14T04:24:55.334Z,22.81
2022-09-14T04:27:23.285Z,22.84
2022-09-14T04:29:50.645Z,22.76
2022-09-14T04:32:17.897Z,22.81
2022-09-14T04:34:45.174Z,22.75
2022-09-14T04:37:12.364Z,22.89
2022-09-14T04:39:39.677Z,22.71
2022-09-14T04:42:07.430Z,22.71
2022-09-14T04:44:34.605Z,22.64
2022-09-14T04:47:01.926Z,22.77
2022-09-14T04:49:29.284Z,22.71
2022-09-14T04:51:56.519Z,22.72
2022-09-14T04:54:23.712Z,22.75
2022-09-14T04:56:50.909Z,22.82
2022-09-14T04:59:18.273Z,22.77
2022-09-14T05:01:47.725Z,22.77
2022-09-14T05:04:15.483Z,22.53
2022-09-14T05:06:44.236Z,22.45
2022-09-14T05:09:16.597Z,22.40
2022-09-14T05:11:44.553Z,22.51
2022-09-14T05:14:13.303Z,22.47
2022-09-14T05:16:41.510Z,22.31
2022-09-14T05:19:12.291Z,22.26
2022-09-14T05:21:39.664Z,22.18
2022-09-14T05:24:15.142Z,22.33
2022-09-14T05:26:43.593Z,22.31
2022-09-14T05:29:16.906Z,22.42
2022-09-14T05:31:45.995Z,22.31
2022-09-14T05:34:13.409Z,22.45
2022-09-14T05:36:41.098Z,22.40
2022-09-14T05:39:08.762Z,22.45
2022-09-14T05:41:36.278Z,22.51
2022-09-14T05:44:04.171Z,22.44
2022-09-14T05:46:31.605Z,22.42
2022-09-14T05:48:59.033Z,22.38
2022-09-14T05:51:27.645Z,22.50
2022-09-14T05:53:56.937Z,22.57
2022-09-14T05:56:26.679Z,22.55
2022-09-14T05:58:54.286Z,22.48
2022-09-14T06:01:27.270Z,22.52
2022-09-14T06:03:56.310Z,22.51
2022-09-14T06:06:24.109Z,22.55
2022-09-14T06:08:55.049Z,22.51
2022-09-14T06:11:28.535Z,22.52
2022-09-14T06:13:56.648Z,22.54
2022-09-14T06:16:25.195Z,22.54
2022-09-14T06:18:54.212Z,22.48
2022-09-14T06:21:23.826Z,22.57
2022-09-14T06:23:51.985Z,22.68
2022-09-14T06:26:20.727Z,22.66
2022-09-14T06:28:48.095Z,22.73
2022-09-14T06:31:17.901Z,22.79
2022-09-14T06:33:46.548Z,22.69
2022-09-14T06:36:21.774Z,22.73
2022-09-14T06:38:49.997Z,22.71
2022-09-14T06:41:20.479Z,22.77
2022-09-14T06:43:48.819Z,22.77
2022-09-14T06:46:21.799Z,22.75
2022-09-14T06:48:55.611Z,22.70
2022-09-14T06:51:37.164Z,22.78
2022-09-14T06:54:05.171Z,22.82
2022-09-14T06:56:35.041Z,22.58
2022-09-14T06:59:02.591Z,22.70
2022-09-14T07:01:30.101Z,22.89
2022-09-14T07:03:58.586Z,22.80
2022-09-14T07:06:33.881Z,22.90
2022-09-14T07:09:03.980Z,23.03
2022-09-14T07:11:31.994Z,23.17
2022-09-14T07:13:59.913Z,23.10
2022-09-14T07:16:28.766Z,23.25
2022-09-14T07:18:57.778Z,23.36
2022-09-14T07:21:26.173Z,23.35
2022-09-14T07:23:53.973Z,23.52
2022-09-14T07:26:26.928Z,23.28
2022-09-14T07:28:59.937Z,23.32
2022-09-14T07:31:30.459Z,23.54
2022-09-14T07:34:00.139Z,23.64
2022-09-14T07:36:30.475Z,23.65
2022-09-14T07:39:01.781Z,23.74
2022-09-14T07:41:30.368Z,23.63
2022-09-14T07:44:00.516Z,23.52
2022-09-14T07:46:29.699Z,23.66
2022-09-14T07:48:58.783Z,23.70
2022-09-14T07:51:26.682Z,23.71
2022-09-14T07:53:54.240Z,23.83
2022-09-14T07:56:21.936Z,23.87
2022-09-14T07:58:53.996Z,24.02
2022-09-14T08:01:23.319Z,24.07
2022-09-14T08:03:51.035Z,24.12
2022-09-14T08:06:21.567Z,24.23
2022-09-14T08:08:55.479Z,24.04
2022-09-14T08:11:30.805Z,24.18
2022-09-14T08:14:16.128Z,24.39
2022-09-14T08:16:46.308Z,24.26
2022-09-14T08:19:17.894Z,24.12
2022-09-14T08:21:47.086Z,24.28
2022-09-14T08:24:17.590Z,24.43
2022-09-14T08:26:45.079Z,24.25
2022-09-14T08:29:16.489Z,24.43
2022-09-14T08:31:47.367Z,24.47
2022-09-14T08:34:15.956Z,24.49
2022-09-14T08:36:43.871Z,24.37
2022-09-14T08:39:12.381Z,24.43
2022-09-14T08:41:45.812Z,24.50
2022-09-14T08:44:34.117Z,24.50
2022-09-14T08:47:04.238Z,24.37
2022-09-14T08:49:37.495Z,24.31
2022-09-14T08:52:05.201Z,24.19
2022-09-14T08:54:37.140Z,24.37
2022-09-14T08:57:16.544Z,24.52
2022-09-14T08:59:52.870Z,24.49
2022-09-14T09:02:44.609Z,24.55
2022-09-14T09:05:20.916Z,24.63
2022-09-14T09:07:54.282Z,24.46
2022-09-14T09:10:21.891Z,24.48
2022-09-14T09:12:53.668Z,24.48
2022-09-14T09:15:24.303Z,24.59
2022-09-14T09:18:09.657Z,24.65
2022-09-14T09:20:44.330Z,24.85
2022-09-14T09:23:16.306Z,24.78
2022-09-14T09:26:07.024Z,24.80
2022-09-14T09:28:34.581Z,24.86
2022-09-14T09:31:05.593Z,24.91
2022-09-14T09:33:52.993Z,24.96
2022-09-14T09:36:23.316Z,24.96
2022-09-14T09:38:50.880Z,25.14
2022-09-14T09:41:27.123Z,25.09
2022-09-14T09:44:01.863Z,25.06
2022-09-14T09:46:34.244Z,25.02
2022-09-14T09:49:22.953Z,25.16
2022-09-14T09:51:50.684Z,25.12
2022-09-14T09:54:29.709Z,25.16
2022-09-14T09:57:05.579Z,25.09
2022-09-14T09:59:35.394Z,25.10
2022-09-14T10:02:24.282Z,25.11
2022-09-14T10:05:22.663Z,24.91
2022-09-14T10:07:52.232Z,25.13
2022-09-14T10:10:22.333Z,25.39
2022-09-14T10:12:56.385Z,25.30
2022-09-14T10:15:31.874Z,25.47
2022-09-14T10:18:11.427Z,25.54
2022-09-14T10:20:42.212Z,25.31
2022-09-14T10:23:18.614Z,25.34
2022-09-14T10:25:47.311Z,25.52
2022-09-14T10:28:28.782Z,25.30
2022-09-14T10:31:08.640Z,25.13
2022-09-14T10:33:35.979Z,25.53
2022-09-14T10:36:16.148Z,25.66
2022-09-14T10:38:52.818Z,25.40
2022-09-14T10:41:30.993Z,25.39
2022-09-14T10:44:22.815Z,25.18
2022-09-14T10:47:07.548Z,25.20
2022-09-14T10:49:53.349Z,25.53
2022-09-14T10:52:24.654Z,25.68
2022-09-14T10:55:07.921Z,26.08
2022-09-14T10:57:35.177Z,25.89
2022-09-14T11:00:14.964Z,25.83
2022-09-14T11:02:45.240Z,25.89
2022-09-14T11:05:22.496Z,25.77
2022-09-14T11:08:14.180Z,25.70
2022-09-14T11:10:52.116Z,25.91
2022-09-14T11:13:44.517Z,25.79
2022-09-14T11:16:41.200Z,25.92
2022-09-14T11:19:37.039Z,26.12
2022-09-14T11:22:46.674Z,26.43
2022-09-14T11:25:25.368Z,26.17
2022-09-14T11:27:57.659Z,25.70
2022-09-14T11:30:33.196Z,25.45
2022-09-14T11:33:09.128Z,25.66
2022-09-14T11:35:53.202Z,25.91
2022-09-14T11:38:22.326Z,26.16
2022-09-14T11:40:54.439Z,26.05
2022-09-14T11:43:36.520Z,26.33
2022-09-14T11:46:06.676Z,26.57
2022-09-14T11:48:42.754Z,26.63
2022-09-14T11:51:33.681Z,26.65
2022-09-14T11:54:00.960Z,26.71
2022-09-14T11:56:31.267Z,26.50
2022-09-14T11:59:00.772Z,26.78
2022-09-14T12:01:37.302Z,26.86
2022-09-14T12:04:13.438Z,26.78
2022-09-14T12:06:40.741Z,26.82
2022-09-14T12:09:14.343Z,26.70
2022-09-14T12:11:43.234Z,26.72
2022-09-14T12:14:15.702Z,27.21
2022-09-14T12:17:38.447Z,26.97
2022-09-14T12:20:27.182Z,26.96
2022-09-14T12:23:13.641Z,26.84
2022-09-14T12:25:53.628Z,26.90
2022-09-14T12:28:38.895Z,27.08
2022-09-14T12:31:10.346Z,27.29
2022-09-14T12:33:37.544Z,27.17
2022-09-14T12:36:05.582Z,27.48
2022-09-14T12:38:51.018Z,27.57
2022-09-14T12:41:18.261Z,27.27
2022-09-14T12:43:46.189Z,26.82
2022-09-14T12:46:22.637Z,27.03
2022-09-14T12:48:54.273Z,27.04
2022-09-14T12:51:34.053Z,26.56
2022-09-14T12:54:26.157Z,26.36
2022-09-14T12:57:15.428Z,26.13
2022-09-14T12:59:54.117Z,26.55
2022-09-14T13:03:10.200Z,26.91
2022-09-14T13:05:37.506Z,27.32
2022-09-14T13:08:10.205Z,27.40
2022-09-14T13:10:40.671Z,27.40
2022-09-14T13:13:30.794Z,27.53
2022-09-14T13:15:58.751Z,27.40
2022-09-14T13:18:35.081Z,27.47
2022-09-14T13:21:20.445Z,27.66
2022-09-14T13:23:48.267Z,27.63
2022-09-14T13:26:21.429Z,27.59
2022-09-14T13:28:51.215Z,27.05
2022-09-14T13:31:32.389Z,26.57
2022-09-14T13:33:59.904Z,25.58
2022-09-14T13:36:30.525Z,25.41
2022-09-14T13:39:01.631Z,25.67
2022-09-14T13:41:30.148Z,25.85
2022-09-14T13:43:58.321Z,25.93
2022-09-14T13:46:27.033Z,26.02
2022-09-14T13:48:54.765Z,25.87
2022-09-14T13:51:24.877Z,25.89
2022-09-14T13:53:55.006Z,26.11
2022-09-14T13:56:33.964Z,26.31
2022-09-14T13:59:07.161Z,26.08
2022-09-14T14:01:40.545Z,26.32
2022-09-14T14:04:25.986Z,26.27
2022-09-14T14:07:23.339Z,25.97
2022-09-14T14:09:53.700Z,26.13
2022-09-14T14:12:24.371Z,26.21
2022-09-14T14:15:14.810Z,26.01
2022-09-14T14:17:42.259Z,26.08
2022-09-14T14:20:27.947Z,26.30
2022-09-14T14:23:10.641Z,25.86
2022-09-14T14:25:46.026Z,25.65
2022-09-14T14:28:20.115Z,25.71
2022-09-14T14:30:47.383Z,26.09
2022-09-14T14:33:19.705Z,25.89
2022-09-14T14:35:48.676Z,25.91
2022-09-14T14:38:16.254Z,26.37
2022-09-14T14:40:44.371Z,26.42
2022-09-14T14:43:18.794Z,26.31
2022-09-14T14:45:46.156Z,26.31
2022-09-14T14:48:13.499Z,26.25
2022-09-14T14:50:40.726Z,26.03
2022-09-14T14:53:07.940Z,25.98
2022-09-14T14:55:37.464Z,25.84
2022-09-14T14:58:09.909Z,25.76
2022-09-14T15:00:38.639Z,25.99
2022-09-14T15:03:05.910Z,25.54
2022-09-14T15:05:33.639Z,25.78
2022-09-14T15:08:01.024Z,25.78
2022-09-14T15:10:29.332Z,25.55
2022-09-14T15:12:56.770Z,25.71
2022-09-14T15:15:26.325Z,25.83
2022-09-14T15:17:54.149Z,25.61
2022-09-14T15:20:22.073Z,25.66
2022-09-14T15:22:49.356Z,25.63
2022-09-14T15:25:18.058Z,25.64
2022-09-14T15:27:45.572Z,25.61
2022-09-14T15:30:13.728Z,25.64
2022-09-14T15:32:41.372Z,26.03
2022-09-14T15:35:12.538Z,25.80
2022-09-14T15:37:40.095Z,25.94
2022-09-14T15:40:07.934Z,25.88
2022-09-14T15:42:35.209Z,25.83
2022-09-14T15:45:02.701Z,25.69
2022-09-14T15:47:32.890Z,25.95
2022-09-14T15:50:04.009Z,25.96
2022-09-14T15:52:31.344Z,26.20
2022-09-14T15:54:58.704Z,26.21
2022-09-14T15:57:26.031Z,26.17
2022-09-14T15:59:54.204Z,26.19
2022-09-14T16:02:22.250Z,25.80
2022-09-14T16:04:49.644Z,25.41
2022-09-14T16:07:16.876Z,25.41
2022-09-14T16:09:44.179Z,25.30
2022-09-14T16:12:12.537Z,25.31
2022-09-14T16:14:40.101Z,25.52
2022-09-14T16:17:09.157Z,25.45
2022-09-14T16:19:36.423Z,25.40
2022-09-14T16:22:04.262Z,25.18
2022-09-14T16:24:31.812Z,25.40
2022-09-14T16:26:59.700Z,25.39
2022-09-14T16:29:27.416Z,25.91
2022-09-14T16:31:54.858Z,25.90
2022-09-14T16:34:27.340Z,25.74
2022-09-14T16:36:55.372Z,25.38
2022-09-14T16:39:25.489Z,25.51
2022-09-14T16:41:55.579Z,25.63
2022-09-14T16:44:24.670Z,25.82
2022-09-14T16:46:53.191Z,25.45
2022-09-14T16:49:25.041Z,25.70
2022-09-14T16:51:55.372Z,25.54
2022-09-14T16:54:24.391Z,25.26
2022-09-14T16:56:52.104Z,25.55
2022-09-14T16:59:20.577Z,25.26
2022-09-14T17:01:53.440Z,25.29
2022-09-14T17:04:22.351Z,25.41
2022-09-14T17:06:50.569Z,25.32
2022-09-14T17:09:23.784Z,25.04
2022-09-14T17:11:51.513Z,24.92
2022-09-14T17:14:21.740Z,25.03
2022-09-14T17:16:49.346Z,25.08
2022-09-14T17:19:17.296Z,25.10
2022-09-14T17:21:46.088Z,25.28
2022-09-14T17:24:14.431Z,25.20
2022-09-14T17:26:42.300Z,25.19
2022-09-14T17:29:09.994Z,25.09
2022-09-14T17:31:40.586Z,25.09
2022-09-14T17:34:09.990Z,25.19
2022-09-14T17:36:38.177Z,25.10
2022-09-14T17:39:11.412Z,25.58
2022-09-14T17:41:40.618Z,25.53
2022-09-14T17:44:10.594Z,25.31
2022-09-14T17:46:46.010Z,25.36
2022-09-14T17:49:18.292Z,25.28
2022-09-14T17:51:45.514Z,25.29
2022-09-14T17:54:13.209Z,25.08
2022-09-14T17:56:40.470Z,25.03
2022-09-14T17:59:11.655Z,24.99
2022-09-14T18:01:39.295Z,24.91
2022-09-14T18:04:11.029Z,25.00
2022-09-14T18:06:40.623Z,25.09
2022-09-14T18:09:11.589Z,24.94
2022-09-14T18:11:39.105Z,24.87
2022-09-14T18:14:06.456Z,25.03
2022-09-14T18:16:34.004Z,24.98
2022-09-14T18:19:01.628Z,25.25
2022-09-14T18:21:28.789Z,25.23
2022-09-14T18:23:56.344Z,25.21
2022-09-14T18:26:24.844Z,25.17
2022-09-14T18:28:55.868Z,25.23
2022-09-14T18:31:23.387Z,25.00
2022-09-14T18:33:53.946Z,25.05
2022-09-14T18:36:22.392Z,25.25
2022-09-14T18:38:52.992Z,25.04
2022-09-14T18:41:20.752Z,25.20
2022-09-14T18:43:50.872Z,24.82
2022-09-14T18:46:18.589Z,24.52
2022-09-14T18:48:46.744Z,24.41
2022-09-14T18:51:14.526Z,24.23
2022-09-14T18:53:42.391Z,24.69
2022-09-14T18:56:14.660Z,24.69
2022-09-14T18:58:44.279Z,24.64
2022-09-14T19:01:12.359Z,24.46
2022-09-14T19:03:41.641Z,24.39
2022-09-14T19:06:11.536Z,24.24
2022-09-14T19:08:38.993Z,24.13
2022-09-14T19:11:11.225Z,23.84
2022-09-14T19:13:38.793Z,24.05
2022-09-14T19:16:08.214Z,23.82
2022-09-14T19:18:35.817Z,23.79
2022-09-14T19:21:14.317Z,23.64
2022-09-14T19:23:42.962Z,23.75
2022-09-14T19:26:14.674Z,23.80
2022-09-14T19:28:42.322Z,23.65
2022-09-14T19:31:12.238Z,23.36
2022-09-14T19:33:44.512Z,23.20
2022-09-14T19:36:15.619Z,23.07
2022-09-14T19:38:43.457Z,23.18
2022-09-14T19:41:10.869Z,23.32
2022-09-14T19:43:38.509Z,23.14
2022-09-14T19:46:10.763Z,22.83
2022-09-14T19:48:38.486Z,22.65
2022-09-14T19:51:12.492Z,22.55
2022-09-14T19:53:39.726Z,22.41
2022-09-14T19:56:10.806Z,22.44
2022-09-14T19:58:39.874Z,22.59
2022-09-14T20:01:07.601Z,22.42
2022-09-14T20:03:36.979Z,22.61
2022-09-14T20:06:10.194Z,22.55
2022-09-14T20:08:37.923Z,22.47
2022-09-14T20:11:09.811Z,22.53
2022-09-14T20:13:38.026Z,22.41
2022-09-14T20:16:29.016Z,22.32
2022-09-14T20:18:58.253Z,22.18
2022-09-14T20:21:26.601Z,22.40
2022-09-14T20:24:14.480Z,22.07
2022-09-14T20:26:42.245Z,21.95
2022-09-14T20:29:09.506Z,21.92
2022-09-14T20:31:37.019Z,21.74
2022-09-14T20:34:04.520Z,21.72
2022-09-14T20:36:32.418Z,21.80
2022-09-14T20:39:00.029Z,21.83
2022-09-14T20:41:34.214Z,21.77
2022-09-14T20:44:01.914Z,22.17
2022-09-14T20:46:35.241Z,22.02
2022-09-14T20:49:04.570Z,22.07
2022-09-14T20:51:32.192Z,21.93
2022-09-14T20:53:59.539Z,21.90
2022-09-14T20:56:28.817Z,22.02
2022-09-14T20:58:58.078Z,21.98
2022-09-14T21:01:28.253Z,21.96
2022-09-14T21:03:56.035Z,21.67
2022-09-14T21:06:24.678Z,21.90
2022-09-14T21:08:52.051Z,21.61
2022-09-14T21:11:28.673Z,21.57
2022-09-14T21:13:57.671Z,21.65
2022-09-14T21:16:28.140Z,21.47
2022-09-14T21:19:06.593Z,21.25
2022-09-14T21:21:34.211Z,21.66
2022-09-14T21:24:03.125Z,21.78
2022-09-14T21:26:34.068Z,21.43
2022-09-14T21:29:04.829Z,21.19
2022-09-14T21:31:36.418Z,21.48
2022-09-14T21:34:05.701Z,21.40
2022-09-14T21:36:36.355Z,21.55
2022-09-14T21:39:25.605Z,21.45
2022-09-14T21:41:58.415Z,21.30
2022-09-14T21:44:31.318Z,21.12
2022-09-14T21:46:59.401Z,21.03
2022-09-14T21:49:26.707Z,21.23
2022-09-14T21:51:53.909Z,21.40
2022-09-14T21:54:21.446Z,21.22
2022-09-14T21:56:48.737Z,20.97
2022-09-14T21:59:18.470Z,20.92
2022-09-14T22:01:46.085Z,21.27
2022-09-14T22:04:22.686Z,21.63
2022-09-14T22:06:51.499Z,21.25
2022-09-14T22:09:21.778Z,20.83
2022-09-14T22:11:49.141Z,20.77
2022-09-14T22:14:19.159Z,20.47
2022-09-14T22:16:46.874Z,20.57
2022-09-14T22:19:24.092Z,20.44
2022-09-14T22:21:51.914Z,20.49
2022-09-14T22:24:21.973Z,20.56
2022-09-14T22:26:52.866Z,20.42
2022-09-14T22:29:21.181Z,20.50
2022-09-14T22:31:48.549Z,20.82
2022-09-14T22:34:16.767Z,20.72
2022-09-14T22:36:44.001Z,20.66
2022-09-14T22:39:11.642Z,20.76
2022-09-14T22:41:39.885Z,20.46
2022-09-14T22:44:07.630Z,20.47
2022-09-14T22:46:35.748Z,20.31
2022-09-14T22:49:03.504Z,20.02
2022-09-14T22:51:33.110Z,19.96
2022-09-14T22:54:00.904Z,19.94
2022-09-14T22:56:35.274Z,20.21
2022-09-14T22:59:05.552Z,20.23
2022-09-14T23:01:35.315Z,20.22
2022-09-14T23:04:11.190Z,20.30
2022-09-14T23:06:41.489Z,20.38
2022-09-14T23:09:10.006Z,20.07
2022-09-14T23:11:37.730Z,19.95
2022-09-14T23:14:05.121Z,20.06
2022-09-14T23:16:32.468Z,20.02
2022-09-14T23:19:01.553Z,20.07
2022-09-14T23:21:29.893Z,20.16
2022-09-14T23:23:59.476Z,20.20
2022-09-14T23:26:27.343Z,20.38
2022-09-14T23:28:57.069Z,20.29
2022-09-14T23:31:24.720Z,20.15
2022-09-14T23:33:53.541Z,20.05
2022-09-14T23:36:22.208Z,19.90
2022-09-14T23:38:50.050Z,20.04
2022-09-14T23:41:19.136Z,19.88
2022-09-14T23:43:46.584Z,19.97
2022-09-14T23:46:14.251Z,19.87
2022-09-14T23:48:41.629Z,20.09
2022-09-14T23:51:09.789Z,20.01
2022-09-14T23:53:37.443Z,19.89
2022-09-14T23:56:05.449Z,19.88
2022-09-14T23:58:32.621Z,19.87
